sensor_id;sensor_type;location;lat;lon;timestamp;P1;durP1;ratioP1;P2;durP2;ratioP2
19358;SDS011;9815;52.334;20.890;2023-02-01T00:00:39;18.00;;;10.40;;
19358;SDS011;9815;52.334;20.890;2023-02-01T00:03:07;19.40;;;10.03;;
19358;SDS011;9815;52.334;20.890;2023-02-01T00:05:36;18.97;;;9.83;;
19358;SDS011;9815;52.334;20.890;2023-02-01T00:08:04;20.50;;;9.37;;
19358;SDS011;9815;52.334;20.890;2023-02-01T00:10:33;17.87;;;9.53;;
19358;SDS011;9815;52.334;20.890;2023-02-01T00:13:01;14.87;;;8.37;;
19358;SDS011;9815;52.334;20.890;2023-02-01T00:15:29;18.03;;;9.03;;
19358;SDS011;9815;52.334;20.890;2023-02-01T00:18:00;14.33;;;8.60;;
19358;SDS011;9815;52.334;20.890;2023-02-01T00:20:28;19.37;;;8.47;;
19358;SDS011;9815;52.334;20.890;2023-02-01T00:22:56;15.40;;;8.50;;
19358;SDS011;9815;52.334;20.890;2023-02-01T00:25:24;13.73;;;7.53;;
19358;SDS011;9815;52.334;20.890;2023-02-01T00:27:53;13.67;;;7.93;;
19358;SDS011;9815;52.334;20.890;2023-02-01T00:30:23;15.97;;;8.10;;
19358;SDS011;9815;52.334;20.890;2023-02-01T00:32:51;14.23;;;8.13;;
19358;SDS011;9815;52.334;20.890;2023-02-01T00:35:18;14.00;;;7.87;;
19358;SDS011;9815;52.334;20.890;2023-02-01T00:37:46;12.10;;;6.70;;
19358;SDS011;9815;52.334;20.890;2023-02-01T00:40:15;11.23;;;6.07;;
19358;SDS011;9815;52.334;20.890;2023-02-01T00:42:43;10.87;;;6.03;;
19358;SDS011;9815;52.334;20.890;2023-02-01T00:45:12;9.47;;;5.53;;
19358;SDS011;9815;52.334;20.890;2023-02-01T00:47:40;11.77;;;5.53;;
19358;SDS011;9815;52.334;20.890;2023-02-01T00:50:09;8.87;;;4.83;;
19358;SDS011;9815;52.334;20.890;2023-02-01T00:52:37;10.33;;;4.60;;
19358;SDS011;9815;52.334;20.890;2023-02-01T00:55:05;8.10;;;4.20;;
19358;SDS011;9815;52.334;20.890;2023-02-01T00:57:33;10.77;;;4.37;;
19358;SDS011;9815;52.334;20.890;2023-02-01T01:00:01;7.93;;;3.83;;
19358;SDS011;9815;52.334;20.890;2023-02-01T01:02:31;10.37;;;4.20;;
19358;SDS011;9815;52.334;20.890;2023-02-01T01:04:59;6.57;;;3.03;;
19358;SDS011;9815;52.334;20.890;2023-02-01T01:07:27;6.87;;;3.67;;
19358;SDS011;9815;52.334;20.890;2023-02-01T01:09:55;4.63;;;3.00;;
19358;SDS011;9815;52.334;20.890;2023-02-01T01:12:23;9.27;;;3.13;;
19358;SDS011;9815;52.334;20.890;2023-02-01T01:14:51;7.30;;;3.50;;
19358;SDS011;9815;52.334;20.890;2023-02-01T01:17:19;9.60;;;3.97;;
19358;SDS011;9815;52.334;20.890;2023-02-01T01:19:49;10.07;;;3.17;;
19358;SDS011;9815;52.334;20.890;2023-02-01T01:22:17;8.80;;;2.97;;
19358;SDS011;9815;52.334;20.890;2023-02-01T01:24:45;5.20;;;2.60;;
19358;SDS011;9815;52.334;20.890;2023-02-01T01:27:14;9.17;;;3.03;;
19358;SDS011;9815;52.334;20.890;2023-02-01T01:29:49;7.37;;;2.80;;
19358;SDS011;9815;52.334;20.890;2023-02-01T01:32:17;9.10;;;2.60;;
19358;SDS011;9815;52.334;20.890;2023-02-01T01:34:45;9.23;;;3.90;;
19358;SDS011;9815;52.334;20.890;2023-02-01T01:37:14;10.30;;;4.00;;
19358;SDS011;9815;52.334;20.890;2023-02-01T01:39:42;9.87;;;2.77;;
19358;SDS011;9815;52.334;20.890;2023-02-01T01:42:10;15.17;;;2.47;;
19358;SDS011;9815;52.334;20.890;2023-02-01T01:44:56;11.47;;;3.17;;
19358;SDS011;9815;52.334;20.890;2023-02-01T01:47:29;7.13;;;2.93;;
19358;SDS011;9815;52.334;20.890;2023-02-01T01:50:00;10.13;;;2.70;;
19358;SDS011;9815;52.334;20.890;2023-02-01T01:52:31;11.03;;;2.90;;
19358;SDS011;9815;52.334;20.890;2023-02-01T01:55:00;9.67;;;2.63;;
19358;SDS011;9815;52.334;20.890;2023-02-01T01:57:29;6.13;;;2.80;;
19358;SDS011;9815;52.334;20.890;2023-02-01T02:00:03;6.63;;;2.50;;
19358;SDS011;9815;52.334;20.890;2023-02-01T02:02:40;7.30;;;2.50;;
19358;SDS011;9815;52.334;20.890;2023-02-01T02:05:09;9.70;;;3.40;;
19358;SDS011;9815;52.334;20.890;2023-02-01T02:07:42;9.03;;;3.07;;
19358;SDS011;9815;52.334;20.890;2023-02-01T02:10:13;10.53;;;3.20;;
19358;SDS011;9815;52.334;20.890;2023-02-01T02:12:43;11.73;;;3.23;;
19358;SDS011;9815;52.334;20.890;2023-02-01T02:15:15;7.03;;;2.63;;
19358;SDS011;9815;52.334;20.890;2023-02-01T02:17:44;11.70;;;3.00;;
19358;SDS011;9815;52.334;20.890;2023-02-01T02:20:30;8.33;;;3.13;;
19358;SDS011;9815;52.334;20.890;2023-02-01T02:23:32;10.40;;;3.00;;
19358;SDS011;9815;52.334;20.890;2023-02-01T02:26:25;8.13;;;3.03;;
19358;SDS011;9815;52.334;20.890;2023-02-01T02:32:20;6.23;;;3.00;;
19358;SDS011;9815;52.334;20.890;2023-02-01T02:35:17;9.33;;;3.07;;
19358;SDS011;9815;52.334;20.890;2023-02-01T02:37:54;9.13;;;4.00;;
19358;SDS011;9815;52.334;20.890;2023-02-01T02:40:34;10.40;;;3.80;;
19358;SDS011;9815;52.334;20.890;2023-02-01T02:43:09;8.20;;;3.10;;
19358;SDS011;9815;52.334;20.890;2023-02-01T02:46:01;8.60;;;2.70;;
19358;SDS011;9815;52.334;20.890;2023-02-01T02:48:53;11.37;;;3.10;;
19358;SDS011;9815;52.334;20.890;2023-02-01T02:51:30;13.37;;;3.47;;
19358;SDS011;9815;52.334;20.890;2023-02-01T02:54:22;9.83;;;2.97;;
19358;SDS011;9815;52.334;20.890;2023-02-01T02:57:10;7.63;;;3.03;;
19358;SDS011;9815;52.334;20.890;2023-02-01T03:00:02;11.37;;;3.00;;
19358;SDS011;9815;52.334;20.890;2023-02-01T03:02:51;10.23;;;2.80;;
19358;SDS011;9815;52.334;20.890;2023-02-01T03:05:40;9.80;;;3.57;;
19358;SDS011;9815;52.334;20.890;2023-02-01T03:08:13;8.07;;;3.20;;
19358;SDS011;9815;52.334;20.890;2023-02-01T03:10:51;12.13;;;3.03;;
19358;SDS011;9815;52.334;20.890;2023-02-01T03:13:30;14.30;;;3.17;;
19358;SDS011;9815;52.334;20.890;2023-02-01T03:16:03;11.67;;;2.70;;
19358;SDS011;9815;52.334;20.890;2023-02-01T03:18:42;8.53;;;3.10;;
19358;SDS011;9815;52.334;20.890;2023-02-01T03:21:17;10.07;;;2.57;;
19358;SDS011;9815;52.334;20.890;2023-02-01T03:23:50;17.70;;;3.50;;
19358;SDS011;9815;52.334;20.890;2023-02-01T03:26:20;11.07;;;2.77;;
19358;SDS011;9815;52.334;20.890;2023-02-01T03:28:52;8.90;;;2.37;;
19358;SDS011;9815;52.334;20.890;2023-02-01T03:31:24;9.60;;;2.77;;
19358;SDS011;9815;52.334;20.890;2023-02-01T03:33:55;8.50;;;2.80;;
19358;SDS011;9815;52.334;20.890;2023-02-01T03:36:25;10.00;;;2.70;;
19358;SDS011;9815;52.334;20.890;2023-02-01T03:39:00;8.87;;;3.17;;
19358;SDS011;9815;52.334;20.890;2023-02-01T03:41:34;14.37;;;2.83;;
19358;SDS011;9815;52.334;20.890;2023-02-01T03:44:08;8.97;;;2.57;;
19358;SDS011;9815;52.334;20.890;2023-02-01T03:46:41;10.67;;;2.90;;
19358;SDS011;9815;52.334;20.890;2023-02-01T03:49:16;14.47;;;2.77;;
19358;SDS011;9815;52.334;20.890;2023-02-01T03:51:48;8.43;;;3.10;;
19358;SDS011;9815;52.334;20.890;2023-02-01T03:54:19;12.27;;;2.80;;
19358;SDS011;9815;52.334;20.890;2023-02-01T03:56:48;8.53;;;2.67;;
19358;SDS011;9815;52.334;20.890;2023-02-01T03:59:18;12.20;;;2.87;;
19358;SDS011;9815;52.334;20.890;2023-02-01T04:01:46;13.10;;;3.13;;
19358;SDS011;9815;52.334;20.890;2023-02-01T04:04:15;12.83;;;2.73;;
19358;SDS011;9815;52.334;20.890;2023-02-01T04:06:51;13.33;;;2.90;;
19358;SDS011;9815;52.334;20.890;2023-02-01T04:09:21;10.60;;;2.70;;
19358;SDS011;9815;52.334;20.890;2023-02-01T04:11:49;12.93;;;2.90;;
19358;SDS011;9815;52.334;20.890;2023-02-01T04:14:16;9.57;;;2.97;;
19358;SDS011;9815;52.334;20.890;2023-02-01T04:16:44;8.70;;;2.77;;
19358;SDS011;9815;52.334;20.890;2023-02-01T04:19:12;15.60;;;3.10;;
19358;SDS011;9815;52.334;20.890;2023-02-01T04:21:40;10.33;;;2.60;;
19358;SDS011;9815;52.334;20.890;2023-02-01T04:24:08;14.30;;;3.30;;
19358;SDS011;9815;52.334;20.890;2023-02-01T04:26:38;8.63;;;2.70;;
19358;SDS011;9815;52.334;20.890;2023-02-01T04:29:07;13.57;;;2.87;;
19358;SDS011;9815;52.334;20.890;2023-02-01T04:31:36;11.90;;;2.70;;
19358;SDS011;9815;52.334;20.890;2023-02-01T04:34:04;15.37;;;3.20;;
19358;SDS011;9815;52.334;20.890;2023-02-01T04:36:32;17.50;;;2.83;;
19358;SDS011;9815;52.334;20.890;2023-02-01T04:39:00;11.90;;;2.97;;
19358;SDS011;9815;52.334;20.890;2023-02-01T04:41:28;13.70;;;2.77;;
19358;SDS011;9815;52.334;20.890;2023-02-01T04:43:57;11.43;;;2.97;;
19358;SDS011;9815;52.334;20.890;2023-02-01T04:46:25;11.43;;;2.57;;
19358;SDS011;9815;52.334;20.890;2023-02-01T04:48:53;13.83;;;2.97;;
19358;SDS011;9815;52.334;20.890;2023-02-01T04:51:21;14.10;;;2.43;;
19358;SDS011;9815;52.334;20.890;2023-02-01T04:53:49;16.13;;;2.90;;
19358;SDS011;9815;52.334;20.890;2023-02-01T04:56:17;13.33;;;3.23;;
19358;SDS011;9815;52.334;20.890;2023-02-01T04:58:45;15.47;;;2.87;;
19358;SDS011;9815;52.334;20.890;2023-02-01T05:01:14;22.33;;;3.07;;
19358;SDS011;9815;52.334;20.890;2023-02-01T05:03:42;10.40;;;3.10;;
19358;SDS011;9815;52.334;20.890;2023-02-01T05:06:10;10.83;;;3.10;;
19358;SDS011;9815;52.334;20.890;2023-02-01T05:08:38;7.47;;;2.30;;
19358;SDS011;9815;52.334;20.890;2023-02-01T05:11:06;10.43;;;2.90;;
19358;SDS011;9815;52.334;20.890;2023-02-01T05:13:54;11.47;;;2.97;;
19358;SDS011;9815;52.334;20.890;2023-02-01T05:16:23;11.63;;;2.97;;
19358;SDS011;9815;52.334;20.890;2023-02-01T05:18:51;14.50;;;3.07;;
19358;SDS011;9815;52.334;20.890;2023-02-01T05:21:20;8.70;;;2.57;;
19358;SDS011;9815;52.334;20.890;2023-02-01T05:23:48;15.00;;;3.00;;
19358;SDS011;9815;52.334;20.890;2023-02-01T05:26:33;9.77;;;2.60;;
19358;SDS011;9815;52.334;20.890;2023-02-01T05:29:02;9.80;;;2.70;;
19358;SDS011;9815;52.334;20.890;2023-02-01T05:31:31;6.67;;;2.30;;
19358;SDS011;9815;52.334;20.890;2023-02-01T05:34:00;8.20;;;2.53;;
19358;SDS011;9815;52.334;20.890;2023-02-01T05:36:28;10.13;;;2.30;;
19358;SDS011;9815;52.334;20.890;2023-02-01T05:38:56;13.17;;;2.60;;
19358;SDS011;9815;52.334;20.890;2023-02-01T05:41:24;9.70;;;2.70;;
19358;SDS011;9815;52.334;20.890;2023-02-01T05:43:52;11.40;;;3.03;;
19358;SDS011;9815;52.334;20.890;2023-02-01T05:46:20;13.07;;;3.10;;
19358;SDS011;9815;52.334;20.890;2023-02-01T05:48:49;15.50;;;3.20;;
19358;SDS011;9815;52.334;20.890;2023-02-01T05:51:17;11.50;;;2.87;;
19358;SDS011;9815;52.334;20.890;2023-02-01T05:53:45;13.90;;;2.87;;
19358;SDS011;9815;52.334;20.890;2023-02-01T05:56:13;13.87;;;3.40;;
19358;SDS011;9815;52.334;20.890;2023-02-01T05:58:41;12.60;;;3.40;;
19358;SDS011;9815;52.334;20.890;2023-02-01T06:01:09;17.80;;;2.70;;
19358;SDS011;9815;52.334;20.890;2023-02-01T06:03:37;17.57;;;3.10;;
19358;SDS011;9815;52.334;20.890;2023-02-01T06:06:06;11.97;;;2.70;;
19358;SDS011;9815;52.334;20.890;2023-02-01T06:08:34;11.87;;;2.83;;
19358;SDS011;9815;52.334;20.890;2023-02-01T06:11:03;11.27;;;3.33;;
19358;SDS011;9815;52.334;20.890;2023-02-01T06:13:32;13.40;;;2.50;;
19358;SDS011;9815;52.334;20.890;2023-02-01T06:16:01;9.03;;;2.57;;
19358;SDS011;9815;52.334;20.890;2023-02-01T06:18:29;7.90;;;2.73;;
19358;SDS011;9815;52.334;20.890;2023-02-01T06:20:58;13.60;;;2.57;;
19358;SDS011;9815;52.334;20.890;2023-02-01T06:23:28;13.77;;;3.13;;
19358;SDS011;9815;52.334;20.890;2023-02-01T06:25:59;11.77;;;2.80;;
19358;SDS011;9815;52.334;20.890;2023-02-01T06:28:29;10.57;;;2.63;;
19358;SDS011;9815;52.334;20.890;2023-02-01T06:30:57;10.43;;;2.90;;
19358;SDS011;9815;52.334;20.890;2023-02-01T06:33:31;14.30;;;2.87;;
19358;SDS011;9815;52.334;20.890;2023-02-01T06:36:00;10.03;;;2.90;;
19358;SDS011;9815;52.334;20.890;2023-02-01T06:38:31;8.80;;;2.60;;
19358;SDS011;9815;52.334;20.890;2023-02-01T06:41:01;15.57;;;2.80;;
19358;SDS011;9815;52.334;20.890;2023-02-01T06:43:30;12.93;;;2.97;;
19358;SDS011;9815;52.334;20.890;2023-02-01T06:45:59;11.87;;;3.40;;
19358;SDS011;9815;52.334;20.890;2023-02-01T06:48:28;14.27;;;3.37;;
19358;SDS011;9815;52.334;20.890;2023-02-01T06:50:56;11.77;;;2.87;;
19358;SDS011;9815;52.334;20.890;2023-02-01T06:53:25;11.90;;;3.13;;
19358;SDS011;9815;52.334;20.890;2023-02-01T06:55:55;11.60;;;2.80;;
19358;SDS011;9815;52.334;20.890;2023-02-01T06:58:27;10.73;;;2.90;;
19358;SDS011;9815;52.334;20.890;2023-02-01T07:00:55;9.73;;;2.73;;
19358;SDS011;9815;52.334;20.890;2023-02-01T07:03:23;12.00;;;2.83;;
19358;SDS011;9815;52.334;20.890;2023-02-01T07:05:54;16.37;;;2.80;;
19358;SDS011;9815;52.334;20.890;2023-02-01T07:08:23;8.13;;;2.30;;
19358;SDS011;9815;52.334;20.890;2023-02-01T07:10:51;10.87;;;3.27;;
19358;SDS011;9815;52.334;20.890;2023-02-01T07:13:20;14.83;;;2.87;;
19358;SDS011;9815;52.334;20.890;2023-02-01T07:15:48;17.50;;;3.47;;
19358;SDS011;9815;52.334;20.890;2023-02-01T07:18:16;16.27;;;3.37;;
19358;SDS011;9815;52.334;20.890;2023-02-01T07:20:49;9.40;;;2.80;;
19358;SDS011;9815;52.334;20.890;2023-02-01T07:23:17;8.93;;;2.60;;
19358;SDS011;9815;52.334;20.890;2023-02-01T07:25:45;15.93;;;3.30;;
19358;SDS011;9815;52.334;20.890;2023-02-01T07:28:13;15.63;;;2.90;;
19358;SDS011;9815;52.334;20.890;2023-02-01T07:30:43;15.03;;;3.33;;
19358;SDS011;9815;52.334;20.890;2023-02-01T07:33:18;14.20;;;2.97;;
19358;SDS011;9815;52.334;20.890;2023-02-01T07:35:46;9.23;;;3.20;;
19358;SDS011;9815;52.334;20.890;2023-02-01T07:38:15;15.50;;;3.30;;
19358;SDS011;9815;52.334;20.890;2023-02-01T07:40:43;14.03;;;3.60;;
19358;SDS011;9815;52.334;20.890;2023-02-01T07:43:11;10.70;;;3.43;;
19358;SDS011;9815;52.334;20.890;2023-02-01T07:45:39;16.60;;;3.37;;
19358;SDS011;9815;52.334;20.890;2023-02-01T07:48:08;12.10;;;4.50;;
19358;SDS011;9815;52.334;20.890;2023-02-01T07:50:36;16.30;;;4.17;;
19358;SDS011;9815;52.334;20.890;2023-02-01T07:53:04;14.20;;;3.60;;
19358;SDS011;9815;52.334;20.890;2023-02-01T07:55:32;12.93;;;3.20;;
19358;SDS011;9815;52.334;20.890;2023-02-01T07:58:01;15.40;;;3.37;;
19358;SDS011;9815;52.334;20.890;2023-02-01T08:00:29;14.93;;;3.43;;
19358;SDS011;9815;52.334;20.890;2023-02-01T08:03:15;20.93;;;4.00;;
19358;SDS011;9815;52.334;20.890;2023-02-01T08:05:43;11.03;;;3.10;;
19358;SDS011;9815;52.334;20.890;2023-02-01T08:08:11;11.73;;;3.37;;
19358;SDS011;9815;52.334;20.890;2023-02-01T08:10:40;18.17;;;3.60;;
19358;SDS011;9815;52.334;20.890;2023-02-01T08:13:08;15.70;;;3.60;;
19358;SDS011;9815;52.334;20.890;2023-02-01T08:15:36;18.40;;;3.40;;
19358;SDS011;9815;52.334;20.890;2023-02-01T08:18:04;13.00;;;3.97;;
19358;SDS011;9815;52.334;20.890;2023-02-01T08:20:34;17.30;;;4.07;;
19358;SDS011;9815;52.334;20.890;2023-02-01T08:23:02;14.03;;;3.47;;
19358;SDS011;9815;52.334;20.890;2023-02-01T08:25:30;13.97;;;3.30;;
19358;SDS011;9815;52.334;20.890;2023-02-01T08:27:58;16.00;;;4.23;;
19358;SDS011;9815;52.334;20.890;2023-02-01T08:30:26;19.30;;;4.70;;
19358;SDS011;9815;52.334;20.890;2023-02-01T08:32:54;16.73;;;5.03;;
19358;SDS011;9815;52.334;20.890;2023-02-01T08:35:22;15.27;;;4.87;;
19358;SDS011;9815;52.334;20.890;2023-02-01T08:38:09;18.80;;;6.00;;
19358;SDS011;9815;52.334;20.890;2023-02-01T08:40:37;16.20;;;4.77;;
19358;SDS011;9815;52.334;20.890;2023-02-01T08:43:07;17.67;;;4.47;;
19358;SDS011;9815;52.334;20.890;2023-02-01T08:45:35;15.10;;;5.27;;
19358;SDS011;9815;52.334;20.890;2023-02-01T08:48:04;11.27;;;4.03;;
19358;SDS011;9815;52.334;20.890;2023-02-01T08:50:32;12.70;;;3.87;;
19358;SDS011;9815;52.334;20.890;2023-02-01T08:53:00;12.17;;;3.97;;
19358;SDS011;9815;52.334;20.890;2023-02-01T08:55:30;14.83;;;4.33;;
19358;SDS011;9815;52.334;20.890;2023-02-01T08:57:58;12.53;;;3.50;;
19358;SDS011;9815;52.334;20.890;2023-02-01T09:00:26;13.80;;;3.63;;
19358;SDS011;9815;52.334;20.890;2023-02-01T09:02:54;20.07;;;7.37;;
19358;SDS011;9815;52.334;20.890;2023-02-01T09:05:23;15.47;;;5.37;;
19358;SDS011;9815;52.334;20.890;2023-02-01T09:08:00;16.70;;;5.63;;
19358;SDS011;9815;52.334;20.890;2023-02-01T09:10:30;20.93;;;6.00;;
19358;SDS011;9815;52.334;20.890;2023-02-01T09:13:00;11.13;;;4.13;;
19358;SDS011;9815;52.334;20.890;2023-02-01T09:15:29;16.07;;;4.50;;
19358;SDS011;9815;52.334;20.890;2023-02-01T09:17:57;16.60;;;4.20;;
19358;SDS011;9815;52.334;20.890;2023-02-01T09:20:25;21.80;;;4.03;;
19358;SDS011;9815;52.334;20.890;2023-02-01T09:22:54;20.47;;;4.43;;
19358;SDS011;9815;52.334;20.890;2023-02-01T09:25:22;17.77;;;3.77;;
19358;SDS011;9815;52.334;20.890;2023-02-01T09:27:52;15.47;;;4.03;;
19358;SDS011;9815;52.334;20.890;2023-02-01T09:30:20;21.97;;;4.67;;
19358;SDS011;9815;52.334;20.890;2023-02-01T09:32:48;12.90;;;4.20;;
19358;SDS011;9815;52.334;20.890;2023-02-01T09:35:16;16.60;;;3.83;;
19358;SDS011;9815;52.334;20.890;2023-02-01T09:37:44;17.67;;;4.10;;
19358;SDS011;9815;52.334;20.890;2023-02-01T09:40:13;14.20;;;4.17;;
19358;SDS011;9815;52.334;20.890;2023-02-01T09:42:45;17.43;;;4.40;;
19358;SDS011;9815;52.334;20.890;2023-02-01T09:45:24;14.20;;;3.87;;
19358;SDS011;9815;52.334;20.890;2023-02-01T09:48:00;7.40;;;3.33;;
19358;SDS011;9815;52.334;20.890;2023-02-01T09:50:31;11.57;;;3.30;;
19358;SDS011;9815;52.334;20.890;2023-02-01T09:53:04;11.93;;;3.30;;
19358;SDS011;9815;52.334;20.890;2023-02-01T09:55:38;12.53;;;3.83;;
19358;SDS011;9815;52.334;20.890;2023-02-01T09:58:13;8.83;;;3.30;;
19358;SDS011;9815;52.334;20.890;2023-02-01T10:00:47;15.93;;;3.60;;
19358;SDS011;9815;52.334;20.890;2023-02-01T10:03:19;8.10;;;2.93;;
19358;SDS011;9815;52.334;20.890;2023-02-01T10:05:52;9.57;;;3.17;;
19358;SDS011;9815;52.334;20.890;2023-02-01T10:08:42;13.20;;;3.23;;
19358;SDS011;9815;52.334;20.890;2023-02-01T10:11:25;12.27;;;3.60;;
19358;SDS011;9815;52.334;20.890;2023-02-01T10:14:19;10.73;;;2.90;;
19358;SDS011;9815;52.334;20.890;2023-02-01T10:17:12;7.80;;;3.07;;
19358;SDS011;9815;52.334;20.890;2023-02-01T10:19:48;17.97;;;5.00;;
19358;SDS011;9815;52.334;20.890;2023-02-01T10:22:27;12.00;;;3.70;;
19358;SDS011;9815;52.334;20.890;2023-02-01T10:25:26;18.03;;;3.87;;
19358;SDS011;9815;52.334;20.890;2023-02-01T10:27:59;16.13;;;3.90;;
19358;SDS011;9815;52.334;20.890;2023-02-01T10:30:31;26.77;;;5.60;;
19358;SDS011;9815;52.334;20.890;2023-02-01T10:33:12;15.93;;;4.73;;
19358;SDS011;9815;52.334;20.890;2023-02-01T10:35:44;15.00;;;3.60;;
19358;SDS011;9815;52.334;20.890;2023-02-01T10:38:16;10.53;;;3.17;;
19358;SDS011;9815;52.334;20.890;2023-02-01T10:40:48;10.93;;;3.20;;
19358;SDS011;9815;52.334;20.890;2023-02-01T10:43:17;12.20;;;3.43;;
19358;SDS011;9815;52.334;20.890;2023-02-01T10:45:47;10.93;;;3.97;;
19358;SDS011;9815;52.334;20.890;2023-02-01T10:48:15;13.77;;;3.73;;
19358;SDS011;9815;52.334;20.890;2023-02-01T10:50:44;14.30;;;3.83;;
19358;SDS011;9815;52.334;20.890;2023-02-01T10:53:18;16.50;;;3.87;;
19358;SDS011;9815;52.334;20.890;2023-02-01T10:55:51;9.30;;;3.67;;
19358;SDS011;9815;52.334;20.890;2023-02-01T10:58:25;16.23;;;4.47;;
19358;SDS011;9815;52.334;20.890;2023-02-01T11:00:56;10.87;;;3.77;;
19358;SDS011;9815;52.334;20.890;2023-02-01T11:03:33;11.23;;;3.47;;
19358;SDS011;9815;52.334;20.890;2023-02-01T11:06:08;14.50;;;3.30;;
19358;SDS011;9815;52.334;20.890;2023-02-01T11:08:51;10.07;;;3.37;;
19358;SDS011;9815;52.334;20.890;2023-02-01T11:11:20;7.23;;;2.77;;
19358;SDS011;9815;52.334;20.890;2023-02-01T11:13:53;12.23;;;2.90;;
19358;SDS011;9815;52.334;20.890;2023-02-01T11:16:29;12.90;;;3.50;;
19358;SDS011;9815;52.334;20.890;2023-02-01T11:19:00;12.63;;;3.30;;
19358;SDS011;9815;52.334;20.890;2023-02-01T11:21:29;12.87;;;3.00;;
19358;SDS011;9815;52.334;20.890;2023-02-01T11:24:00;12.07;;;3.20;;
19358;SDS011;9815;52.334;20.890;2023-02-01T11:26:30;8.73;;;3.00;;
19358;SDS011;9815;52.334;20.890;2023-02-01T11:29:01;12.80;;;4.10;;
19358;SDS011;9815;52.334;20.890;2023-02-01T11:31:32;14.60;;;4.90;;
19358;SDS011;9815;52.334;20.890;2023-02-01T11:34:05;12.50;;;3.97;;
19358;SDS011;9815;52.334;20.890;2023-02-01T11:36:36;8.20;;;2.80;;
19358;SDS011;9815;52.334;20.890;2023-02-01T11:39:14;9.33;;;3.47;;
19358;SDS011;9815;52.334;20.890;2023-02-01T11:41:55;11.47;;;3.90;;
19358;SDS011;9815;52.334;20.890;2023-02-01T11:44:30;19.10;;;4.50;;
19358;SDS011;9815;52.334;20.890;2023-02-01T11:47:21;7.37;;;3.50;;
19358;SDS011;9815;52.334;20.890;2023-02-01T11:49:52;12.47;;;3.40;;
19358;SDS011;9815;52.334;20.890;2023-02-01T11:52:26;14.60;;;3.30;;
19358;SDS011;9815;52.334;20.890;2023-02-01T11:58:18;13.73;;;3.80;;
19358;SDS011;9815;52.334;20.890;2023-02-01T12:00:59;9.77;;;3.63;;
19358;SDS011;9815;52.334;20.890;2023-02-01T12:03:44;8.83;;;3.30;;
19358;SDS011;9815;52.334;20.890;2023-02-01T12:06:30;9.43;;;3.43;;
19358;SDS011;9815;52.334;20.890;2023-02-01T12:09:12;8.30;;;3.30;;
19358;SDS011;9815;52.334;20.890;2023-02-01T12:11:51;6.60;;;3.27;;
19358;SDS011;9815;52.334;20.890;2023-02-01T12:14:36;13.17;;;3.70;;
19358;SDS011;9815;52.334;20.890;2023-02-01T12:20:18;14.77;;;4.50;;
19358;SDS011;9815;52.334;20.890;2023-02-01T12:23:02;21.43;;;3.90;;
19358;SDS011;9815;52.334;20.890;2023-02-01T12:25:46;12.20;;;4.20;;
19358;SDS011;9815;52.334;20.890;2023-02-01T12:28:34;19.13;;;5.57;;
19358;SDS011;9815;52.334;20.890;2023-02-01T12:31:27;11.37;;;3.90;;
19358;SDS011;9815;52.334;20.890;2023-02-01T12:34:34;14.57;;;3.93;;
19358;SDS011;9815;52.334;20.890;2023-02-01T12:37:31;24.23;;;3.83;;
19358;SDS011;9815;52.334;20.890;2023-02-01T12:40:13;14.53;;;3.87;;
19358;SDS011;9815;52.334;20.890;2023-02-01T12:42:52;14.80;;;4.03;;
19358;SDS011;9815;52.334;20.890;2023-02-01T12:45:27;13.03;;;4.07;;
19358;SDS011;9815;52.334;20.890;2023-02-01T12:48:01;14.53;;;4.47;;
19358;SDS011;9815;52.334;20.890;2023-02-01T12:50:40;15.60;;;4.03;;
19358;SDS011;9815;52.334;20.890;2023-02-01T12:53:14;19.57;;;4.63;;
19358;SDS011;9815;52.334;20.890;2023-02-01T12:55:49;14.17;;;3.70;;
19358;SDS011;9815;52.334;20.890;2023-02-01T12:58:21;14.43;;;3.80;;
19358;SDS011;9815;52.334;20.890;2023-02-01T13:00:54;11.90;;;4.20;;
19358;SDS011;9815;52.334;20.890;2023-02-01T13:03:29;13.20;;;3.73;;
19358;SDS011;9815;52.334;20.890;2023-02-01T13:06:25;11.23;;;3.57;;
19358;SDS011;9815;52.334;20.890;2023-02-01T13:08:59;20.20;;;5.83;;
19358;SDS011;9815;52.334;20.890;2023-02-01T13:11:36;13.83;;;4.87;;
19358;SDS011;9815;52.334;20.890;2023-02-01T13:14:07;15.37;;;3.67;;
19358;SDS011;9815;52.334;20.890;2023-02-01T13:16:45;16.63;;;4.13;;
19358;SDS011;9815;52.334;20.890;2023-02-01T13:19:17;21.23;;;3.67;;
19358;SDS011;9815;52.334;20.890;2023-02-01T13:21:50;11.07;;;3.30;;
19358;SDS011;9815;52.334;20.890;2023-02-01T13:24:36;11.87;;;3.27;;
19358;SDS011;9815;52.334;20.890;2023-02-01T13:27:09;7.77;;;3.10;;
19358;SDS011;9815;52.334;20.890;2023-02-01T13:29:40;11.10;;;3.30;;
19358;SDS011;9815;52.334;20.890;2023-02-01T13:32:21;12.80;;;3.07;;
19358;SDS011;9815;52.334;20.890;2023-02-01T13:35:39;11.10;;;4.03;;
19358;SDS011;9815;52.334;20.890;2023-02-01T13:41:19;25.07;;;7.70;;
19358;SDS011;9815;52.334;20.890;2023-02-01T13:43:55;19.60;;;7.10;;
19358;SDS011;9815;52.334;20.890;2023-02-01T13:46:25;16.47;;;6.50;;
19358;SDS011;9815;52.334;20.890;2023-02-01T13:48:55;10.53;;;3.13;;
19358;SDS011;9815;52.334;20.890;2023-02-01T13:51:34;14.20;;;4.73;;
19358;SDS011;9815;52.334;20.890;2023-02-01T13:54:04;13.07;;;3.60;;
19358;SDS011;9815;52.334;20.890;2023-02-01T13:56:41;11.00;;;3.77;;
19358;SDS011;9815;52.334;20.890;2023-02-01T14:05:53;8.37;;;3.07;;
19358;SDS011;9815;52.334;20.890;2023-02-01T14:08:36;10.03;;;3.67;;
19358;SDS011;9815;52.334;20.890;2023-02-01T14:11:06;9.77;;;3.73;;
19358;SDS011;9815;52.334;20.890;2023-02-01T14:23:27;9.87;;;4.30;;
19358;SDS011;9815;52.334;20.890;2023-02-01T14:28:50;14.13;;;4.80;;
19358;SDS011;9815;52.334;20.890;2023-02-01T14:34:21;10.87;;;4.00;;
19358;SDS011;9815;52.334;20.890;2023-02-01T14:36:58;6.70;;;3.33;;
19358;SDS011;9815;52.334;20.890;2023-02-01T14:39:29;9.47;;;4.60;;
19358;SDS011;9815;52.334;20.890;2023-02-01T14:42:02;12.00;;;4.40;;
19358;SDS011;9815;52.334;20.890;2023-02-01T14:44:33;8.50;;;3.63;;
19358;SDS011;9815;52.334;20.890;2023-02-01T14:47:04;12.37;;;3.70;;
19358;SDS011;9815;52.334;20.890;2023-02-01T14:49:39;12.00;;;4.50;;
19358;SDS011;9815;52.334;20.890;2023-02-01T14:52:17;16.80;;;5.50;;
19358;SDS011;9815;52.334;20.890;2023-02-01T14:54:48;12.97;;;4.17;;
19358;SDS011;9815;52.334;20.890;2023-02-01T14:57:20;7.67;;;3.73;;
19358;SDS011;9815;52.334;20.890;2023-02-01T14:59:57;7.37;;;3.17;;
19358;SDS011;9815;52.334;20.890;2023-02-01T15:02:33;6.93;;;3.50;;
19358;SDS011;9815;52.334;20.890;2023-02-01T15:05:16;5.97;;;3.00;;
19358;SDS011;9815;52.334;20.890;2023-02-01T15:08:00;12.03;;;4.73;;
19358;SDS011;9815;52.334;20.890;2023-02-01T15:10:33;9.67;;;4.07;;
19358;SDS011;9815;52.334;20.890;2023-02-01T15:13:17;7.50;;;3.73;;
19358;SDS011;9815;52.334;20.890;2023-02-01T15:16:00;9.57;;;4.23;;
19358;SDS011;9815;52.334;20.890;2023-02-01T15:18:30;7.30;;;4.03;;
19358;SDS011;9815;52.334;20.890;2023-02-01T15:21:00;6.90;;;3.67;;
19358;SDS011;9815;52.334;20.890;2023-02-01T15:23:49;9.63;;;4.10;;
19358;SDS011;9815;52.334;20.890;2023-02-01T15:26:27;10.30;;;4.57;;
19358;SDS011;9815;52.334;20.890;2023-02-01T15:28:56;4.33;;;2.90;;
19358;SDS011;9815;52.334;20.890;2023-02-01T15:31:31;8.67;;;3.77;;
19358;SDS011;9815;52.334;20.890;2023-02-01T15:34:01;9.10;;;3.67;;
19358;SDS011;9815;52.334;20.890;2023-02-01T15:36:32;12.33;;;4.90;;
19358;SDS011;9815;52.334;20.890;2023-02-01T15:39:11;9.43;;;4.50;;
19358;SDS011;9815;52.334;20.890;2023-02-01T15:41:49;12.17;;;4.13;;
19358;SDS011;9815;52.334;20.890;2023-02-01T15:44:21;8.17;;;3.40;;
19358;SDS011;9815;52.334;20.890;2023-02-01T15:47:05;6.87;;;3.50;;